sensor_id;sensor_type;location;lat;lon;timestamp;pressure;altitude;pressure_sealevel;temperature;humidity
46778;BME280;32536;47.128;8.746;2023-04-04T00:00:33;91739.38;;;4.96;52.72
46778;BME280;32536;47.128;8.746;2023-04-04T00:03:00;91732.97;;;5.01;52.77
46778;BME280;32536;47.128;8.746;2023-04-04T00:05:27;91739.44;;;5.04;52.84
46778;BME280;32536;47.128;8.746;2023-04-04T00:07:54;91732.63;;;5.06;52.75
46778;BME280;32536;47.128;8.746;2023-04-04T00:10:21;91733.00;;;5.05;52.47
46778;BME280;32536;47.128;8.746;2023-04-04T00:12:48;91719.38;;;5.10;52.52
46778;BME280;32536;47.128;8.746;2023-04-04T00:15:14;91720.94;;;5.15;52.50
46778;BME280;32536;47.128;8.746;2023-04-04T00:17:41;91718.31;;;5.18;52.47
46778;BME280;32536;47.128;8.746;2023-04-04T00:20:08;91717.63;;;5.25;52.54
46778;BME280;32536;47.128;8.746;2023-04-04T00:22:35;91719.94;;;5.34;52.42
46778;BME280;32536;47.128;8.746;2023-04-04T00:25:02;91718.44;;;5.36;52.06
46778;BME280;32536;47.128;8.746;2023-04-04T00:27:29;91723.31;;;5.31;51.52
46778;BME280;32536;47.128;8.746;2023-04-04T00:29:56;91722.56;;;5.26;51.91
46778;BME280;32536;47.128;8.746;2023-04-04T00:32:22;91721.44;;;5.27;51.83
46778;BME280;32536;47.128;8.746;2023-04-04T00:34:52;91719.53;;;5.28;51.40
46778;BME280;32536;47.128;8.746;2023-04-04T00:37:19;91722.94;;;5.32;51.71
46778;BME280;32536;47.128;8.746;2023-04-04T00:39:46;91717.28;;;5.34;51.85
46778;BME280;32536;47.128;8.746;2023-04-04T00:42:13;91716.50;;;5.29;51.99
46778;BME280;32536;47.128;8.746;2023-04-04T00:44:39;91711.94;;;5.30;52.27
46778;BME280;32536;47.128;8.746;2023-04-04T00:47:06;91707.81;;;5.36;51.84
46778;BME280;32536;47.128;8.746;2023-04-04T00:49:33;91716.94;;;5.39;51.18
46778;BME280;32536;47.128;8.746;2023-04-04T00:52:00;91712.69;;;5.31;51.90
46778;BME280;32536;47.128;8.746;2023-04-04T00:54:26;91709.66;;;5.25;52.12
46778;BME280;32536;47.128;8.746;2023-04-04T00:56:55;91708.44;;;5.19;52.37
46778;BME280;32536;47.128;8.746;2023-04-04T00:59:25;91706.50;;;5.12;51.40
46778;BME280;32536;47.128;8.746;2023-04-04T01:01:53;91711.03;;;5.08;51.43
46778;BME280;32536;47.128;8.746;2023-04-04T01:04:20;91708.72;;;5.06;51.91
46778;BME280;32536;47.128;8.746;2023-04-04T01:06:48;91711.38;;;5.06;51.99
46778;BME280;32536;47.128;8.746;2023-04-04T01:09:15;91710.97;;;5.01;52.03
46778;BME280;32536;47.128;8.746;2023-04-04T01:11:43;91707.13;;;4.94;52.33
46778;BME280;32536;47.128;8.746;2023-04-04T01:14:10;91700.25;;;4.90;52.70
46778;BME280;32536;47.128;8.746;2023-04-04T01:16:37;91708.59;;;4.88;52.66
46778;BME280;32536;47.128;8.746;2023-04-04T01:19:08;91702.47;;;4.84;52.62
46778;BME280;32536;47.128;8.746;2023-04-04T01:21:36;91706.63;;;4.81;52.36
46778;BME280;32536;47.128;8.746;2023-04-04T01:24:03;91704.31;;;4.76;52.89
46778;BME280;32536;47.128;8.746;2023-04-04T01:26:31;91706.50;;;4.67;52.64
46778;BME280;32536;47.128;8.746;2023-04-04T01:28:58;91701.91;;;4.60;53.06
46778;BME280;32536;47.128;8.746;2023-04-04T01:31:37;91701.09;;;4.56;52.33
46778;BME280;32536;47.128;8.746;2023-04-04T01:34:11;91698.06;;;4.54;52.63
46778;BME280;32536;47.128;8.746;2023-04-04T01:37:01;91696.53;;;4.53;52.27
46778;BME280;32536;47.128;8.746;2023-04-04T01:39:42;91695.41;;;4.54;52.43
46778;BME280;32536;47.128;8.746;2023-04-04T01:42:15;91695.44;;;4.58;53.22
46778;BME280;32536;47.128;8.746;2023-04-04T01:44:42;91688.63;;;4.60;52.82
46778;BME280;32536;47.128;8.746;2023-04-04T01:47:11;91698.50;;;4.63;52.57
46778;BME280;32536;47.128;8.746;2023-04-04T01:49:38;91693.97;;;4.64;52.40
46778;BME280;32536;47.128;8.746;2023-04-04T01:52:05;91698.44;;;4.56;52.49
46778;BME280;32536;47.128;8.746;2023-04-04T01:54:32;91695.28;;;4.43;52.62
46778;BME280;32536;47.128;8.746;2023-04-04T01:57:00;91684.56;;;4.32;52.63
46778;BME280;32536;47.128;8.746;2023-04-04T02:00:02;91686.75;;;4.23;52.79
46778;BME280;32536;47.128;8.746;2023-04-04T02:02:30;91686.25;;;4.10;52.50
46778;BME280;32536;47.128;8.746;2023-04-04T02:04:56;91687.66;;;4.00;52.93
46778;BME280;32536;47.128;8.746;2023-04-04T02:07:24;91684.03;;;3.85;52.35
46778;BME280;32536;47.128;8.746;2023-04-04T02:09:50;91684.28;;;3.73;52.71
46778;BME280;32536;47.128;8.746;2023-04-04T02:12:18;91687.63;;;3.66;53.37
46778;BME280;32536;47.128;8.746;2023-04-04T02:14:44;91685.25;;;3.61;52.76
46778;BME280;32536;47.128;8.746;2023-04-04T02:17:11;91687.88;;;3.58;53.06
46778;BME280;32536;47.128;8.746;2023-04-04T02:19:38;91679.53;;;3.56;53.49
46778;BME280;32536;47.128;8.746;2023-04-04T02:22:05;91690.13;;;3.56;53.29
46778;BME280;32536;47.128;8.746;2023-04-04T02:24:32;91680.66;;;3.55;53.13
46778;BME280;32536;47.128;8.746;2023-04-04T02:26:58;91689.28;;;3.48;52.68
46778;BME280;32536;47.128;8.746;2023-04-04T02:29:26;91681.63;;;3.43;53.11
46778;BME280;32536;47.128;8.746;2023-04-04T02:31:53;91689.28;;;3.21;52.79
46778;BME280;32536;47.128;8.746;2023-04-04T02:34:19;91687.19;;;3.07;53.11
46778;BME280;32536;47.128;8.746;2023-04-04T02:36:46;91684.47;;;3.03;52.98
46778;BME280;32536;47.128;8.746;2023-04-04T02:39:13;91683.72;;;3.03;53.49
46778;BME280;32536;47.128;8.746;2023-04-04T02:41:40;91681.41;;;3.01;53.14
46778;BME280;32536;47.128;8.746;2023-04-04T02:44:06;91690.72;;;2.92;52.98
46778;BME280;32536;47.128;8.746;2023-04-04T02:46:34;91680.03;;;2.84;52.71
46778;BME280;32536;47.128;8.746;2023-04-04T02:49:01;91679.63;;;2.82;52.91
46778;BME280;32536;47.128;8.746;2023-04-04T02:51:28;91681.78;;;2.77;53.10
46778;BME280;32536;47.128;8.746;2023-04-04T02:53:55;91679.16;;;2.77;53.58
46778;BME280;32536;47.128;8.746;2023-04-04T02:56:22;91672.38;;;2.79;53.12
46778;BME280;32536;47.128;8.746;2023-04-04T02:58:49;91668.69;;;2.84;53.07
46778;BME280;32536;47.128;8.746;2023-04-04T03:01:15;91665.69;;;2.85;53.11
46778;BME280;32536;47.128;8.746;2023-04-04T03:03:42;91667.56;;;2.85;53.61
46778;BME280;32536;47.128;8.746;2023-04-04T03:06:09;91668.84;;;2.95;53.08
46778;BME280;32536;47.128;8.746;2023-04-04T03:08:36;91662.94;;;3.05;53.47
46778;BME280;32536;47.128;8.746;2023-04-04T03:11:02;91665.00;;;3.15;53.17
46778;BME280;32536;47.128;8.746;2023-04-04T03:13:29;91662.44;;;3.23;53.26
46778;BME280;32536;47.128;8.746;2023-04-04T03:16:03;91655.78;;;3.32;53.19
46778;BME280;32536;47.128;8.746;2023-04-04T03:18:33;91663.13;;;3.46;53.19
46778;BME280;32536;47.128;8.746;2023-04-04T03:21:00;91657.59;;;3.59;53.28
46778;BME280;32536;47.128;8.746;2023-04-04T03:23:26;91658.84;;;3.68;52.70
46778;BME280;32536;47.128;8.746;2023-04-04T03:25:53;91661.25;;;3.77;52.76
46778;BME280;32536;47.128;8.746;2023-04-04T03:28:20;91664.38;;;3.87;52.71
46778;BME280;32536;47.128;8.746;2023-04-04T03:30:47;91655.75;;;3.93;52.45
46778;BME280;32536;47.128;8.746;2023-04-04T03:33:14;91658.84;;;3.99;52.68
46778;BME280;32536;47.128;8.746;2023-04-04T03:35:41;91653.19;;;4.00;52.51
46778;BME280;32536;47.128;8.746;2023-04-04T03:38:08;91660.00;;;4.01;52.35
46778;BME280;32536;47.128;8.746;2023-04-04T03:40:35;91649.78;;;4.04;52.50
46778;BME280;32536;47.128;8.746;2023-04-04T03:43:02;91653.59;;;4.06;52.38
46778;BME280;32536;47.128;8.746;2023-04-04T03:45:33;91653.25;;;4.08;52.23
46778;BME280;32536;47.128;8.746;2023-04-04T03:48:03;91649.47;;;4.09;52.51
46778;BME280;32536;47.128;8.746;2023-04-04T03:50:30;91656.66;;;4.08;52.23
46778;BME280;32536;47.128;8.746;2023-04-04T03:52:56;91656.25;;;4.06;52.42
46778;BME280;32536;47.128;8.746;2023-04-04T03:55:23;91665.28;;;4.01;52.50
46778;BME280;32536;47.128;8.746;2023-04-04T03:57:50;91651.94;;;3.91;52.37
46778;BME280;32536;47.128;8.746;2023-04-04T04:00:17;91665.13;;;3.83;52.53
46778;BME280;32536;47.128;8.746;2023-04-04T04:02:44;91659.78;;;3.80;52.54
46778;BME280;32536;47.128;8.746;2023-04-04T04:05:11;91659.41;;;3.81;52.89
46778;BME280;32536;47.128;8.746;2023-04-04T04:07:38;91654.13;;;3.85;52.39
46778;BME280;32536;47.128;8.746;2023-04-04T04:10:07;91657.19;;;3.87;52.27
46778;BME280;32536;47.128;8.746;2023-04-04T04:12:34;91661.00;;;3.90;52.09
46778;BME280;32536;47.128;8.746;2023-04-04T04:15:01;91657.28;;;3.94;52.02
46778;BME280;32536;47.128;8.746;2023-04-04T04:17:28;91657.72;;;4.00;51.58
46778;BME280;32536;47.128;8.746;2023-04-04T04:19:55;91660.41;;;4.04;51.61
46778;BME280;32536;47.128;8.746;2023-04-04T04:22:22;91656.97;;;3.99;51.69
46778;BME280;32536;47.128;8.746;2023-04-04T04:24:48;91663.34;;;3.95;51.85
46778;BME280;32536;47.128;8.746;2023-04-04T04:27:15;91661.44;;;3.95;51.95
46778;BME280;32536;47.128;8.746;2023-04-04T04:29:42;91657.31;;;3.98;52.12
46778;BME280;32536;47.128;8.746;2023-04-04T04:32:08;91657.00;;;4.03;52.04
46778;BME280;32536;47.128;8.746;2023-04-04T04:34:35;91658.53;;;4.04;52.26
46778;BME280;32536;47.128;8.746;2023-04-04T04:37:02;91658.88;;;4.03;52.18
46778;BME280;32536;47.128;8.746;2023-04-04T04:39:28;91654.34;;;4.03;52.38
46778;BME280;32536;47.128;8.746;2023-04-04T04:41:55;91657.34;;;4.01;52.51
46778;BME280;32536;47.128;8.746;2023-04-04T04:44:22;91661.19;;;4.04;52.33
46778;BME280;32536;47.128;8.746;2023-04-04T04:46:48;91654.38;;;4.07;52.60
46778;BME280;32536;47.128;8.746;2023-04-04T04:49:15;91661.59;;;4.10;52.28
46778;BME280;32536;47.128;8.746;2023-04-04T04:51:42;91663.16;;;4.14;52.38
46778;BME280;32536;47.128;8.746;2023-04-04T04:56:54;91674.56;;;4.19;51.75
46778;BME280;32536;47.128;8.746;2023-04-04T04:59:21;91672.56;;;4.08;51.73
46778;BME280;32536;47.128;8.746;2023-04-04T05:01:48;91677.00;;;3.97;51.85
46778;BME280;32536;47.128;8.746;2023-04-04T05:04:14;91679.91;;;3.84;51.92
46778;BME280;32536;47.128;8.746;2023-04-04T05:06:42;91677.50;;;3.76;51.96
46778;BME280;32536;47.128;8.746;2023-04-04T05:09:09;91682.31;;;3.66;52.09
46778;BME280;32536;47.128;8.746;2023-04-04T05:11:35;91677.34;;;3.65;52.28
46778;BME280;32536;47.128;8.746;2023-04-04T05:14:02;91685.66;;;3.63;51.78
46778;BME280;32536;47.128;8.746;2023-04-04T05:16:29;91684.09;;;3.59;52.27
46778;BME280;32536;47.128;8.746;2023-04-04T05:18:55;91677.63;;;3.56;52.27
46778;BME280;32536;47.128;8.746;2023-04-04T05:21:22;91686.66;;;3.51;52.00
46778;BME280;32536;47.128;8.746;2023-04-04T05:23:49;91683.63;;;3.49;52.17
46778;BME280;32536;47.128;8.746;2023-04-04T05:26:16;91683.19;;;3.47;52.07
46778;BME280;32536;47.128;8.746;2023-04-04T05:28:42;91684.16;;;3.35;52.39
46778;BME280;32536;47.128;8.746;2023-04-04T05:31:09;91683.31;;;3.28;52.02
46778;BME280;32536;47.128;8.746;2023-04-04T05:33:36;91684.44;;;3.27;52.43
46778;BME280;32536;47.128;8.746;2023-04-04T05:36:03;91684.38;;;3.23;52.29
46778;BME280;32536;47.128;8.746;2023-04-04T05:38:30;91690.72;;;3.18;52.59
46778;BME280;32536;47.128;8.746;2023-04-04T05:40:57;91695.97;;;3.15;52.46
46778;BME280;32536;47.128;8.746;2023-04-04T05:43:24;91699.00;;;3.13;52.32
46778;BME280;32536;47.128;8.746;2023-04-04T05:45:51;91700.81;;;3.09;52.59
46778;BME280;32536;47.128;8.746;2023-04-04T05:48:18;91697.72;;;3.03;52.56
46778;BME280;32536;47.128;8.746;2023-04-04T05:50:45;91705.16;;;2.98;52.38
46778;BME280;32536;47.128;8.746;2023-04-04T05:53:12;91707.31;;;2.88;52.26
46778;BME280;32536;47.128;8.746;2023-04-04T05:55:38;91703.13;;;2.87;52.73
46778;BME280;32536;47.128;8.746;2023-04-04T05:58:05;91700.78;;;2.82;52.42
46778;BME280;32536;47.128;8.746;2023-04-04T06:00:32;91701.50;;;2.79;52.77
46778;BME280;32536;47.128;8.746;2023-04-04T06:02:59;91698.03;;;2.75;52.77
46778;BME280;32536;47.128;8.746;2023-04-04T06:05:26;91699.91;;;2.75;52.48
46778;BME280;32536;47.128;8.746;2023-04-04T06:07:52;91699.50;;;2.72;52.47
46778;BME280;32536;47.128;8.746;2023-04-04T06:10:19;91708.00;;;2.62;52.34
46778;BME280;32536;47.128;8.746;2023-04-04T06:12:46;91701.59;;;2.40;52.99
46778;BME280;32536;47.128;8.746;2023-04-04T06:15:12;91703.97;;;2.26;52.75
46778;BME280;32536;47.128;8.746;2023-04-04T06:17:39;91715.56;;;2.17;53.29
46778;BME280;32536;47.128;8.746;2023-04-04T06:20:06;91710.97;;;2.14;53.26
46778;BME280;32536;47.128;8.746;2023-04-04T06:22:33;91703.84;;;2.18;53.44
46778;BME280;32536;47.128;8.746;2023-04-04T06:25:00;91710.97;;;2.14;53.20
46778;BME280;32536;47.128;8.746;2023-04-04T06:27:27;91707.97;;;2.16;53.34
46778;BME280;32536;47.128;8.746;2023-04-04T06:29:54;91710.28;;;2.17;53.27
46778;BME280;32536;47.128;8.746;2023-04-04T06:32:21;91711.84;;;2.22;53.23
46778;BME280;32536;47.128;8.746;2023-04-04T06:34:47;91709.34;;;2.29;53.82
46778;BME280;32536;47.128;8.746;2023-04-04T06:37:14;91714.81;;;2.40;53.46
46778;BME280;32536;47.128;8.746;2023-04-04T06:39:41;91712.28;;;2.47;53.24
46778;BME280;32536;47.128;8.746;2023-04-04T06:42:07;91713.47;;;2.50;53.27
46778;BME280;32536;47.128;8.746;2023-04-04T06:44:34;91714.31;;;2.54;53.29
46778;BME280;32536;47.128;8.746;2023-04-04T06:47:01;91707.94;;;2.59;53.17
46778;BME280;32536;47.128;8.746;2023-04-04T06:49:27;91709.53;;;2.63;53.47
46778;BME280;32536;47.128;8.746;2023-04-04T06:51:54;91713.06;;;2.71;53.71
46778;BME280;32536;47.128;8.746;2023-04-04T06:54:21;91714.03;;;2.82;53.75
46778;BME280;32536;47.128;8.746;2023-04-04T06:56:47;91716.47;;;2.95;53.19
46778;BME280;32536;47.128;8.746;2023-04-04T06:59:14;91711.72;;;3.04;52.81
46778;BME280;32536;47.128;8.746;2023-04-04T07:01:41;91714.13;;;3.13;52.76
46778;BME280;32536;47.128;8.746;2023-04-04T07:04:07;91713.06;;;3.17;52.77
46778;BME280;32536;47.128;8.746;2023-04-04T07:06:34;91708.56;;;3.22;53.03
46778;BME280;32536;47.128;8.746;2023-04-04T07:09:01;91707.84;;;3.25;52.82
46778;BME280;32536;47.128;8.746;2023-04-04T07:11:29;91714.78;;;3.33;53.04
46778;BME280;32536;47.128;8.746;2023-04-04T07:13:56;91712.66;;;3.42;52.92
46778;BME280;32536;47.128;8.746;2023-04-04T07:16:23;91712.34;;;3.47;52.77
46778;BME280;32536;47.128;8.746;2023-04-04T07:18:49;91710.09;;;3.49;52.83
46778;BME280;32536;47.128;8.746;2023-04-04T07:21:16;91704.03;;;3.49;52.49
46778;BME280;32536;47.128;8.746;2023-04-04T07:23:43;91708.56;;;3.48;52.48
46778;BME280;32536;47.128;8.746;2023-04-04T07:26:09;91716.94;;;3.50;52.45
46778;BME280;32536;47.128;8.746;2023-04-04T07:28:36;91712.75;;;3.49;52.43
46778;BME280;32536;47.128;8.746;2023-04-04T07:31:03;91716.50;;;3.48;52.77
46778;BME280;32536;47.128;8.746;2023-04-04T07:33:31;91717.13;;;3.38;52.65
46778;BME280;32536;47.128;8.746;2023-04-04T07:36:00;91716.16;;;3.23;52.70
46778;BME280;32536;47.128;8.746;2023-04-04T07:38:27;91713.34;;;3.12;52.83
46778;BME280;32536;47.128;8.746;2023-04-04T07:40:54;91726.56;;;3.12;52.76
46778;BME280;32536;47.128;8.746;2023-04-04T07:43:21;91714.56;;;3.18;52.71
46778;BME280;32536;47.128;8.746;2023-04-04T07:45:48;91719.56;;;3.24;52.63
46778;BME280;32536;47.128;8.746;2023-04-04T07:48:15;91722.22;;;3.24;52.77
46778;BME280;32536;47.128;8.746;2023-04-04T07:50:41;91729.38;;;3.23;52.70
46778;BME280;32536;47.128;8.746;2023-04-04T07:53:08;91721.06;;;3.21;53.24
46778;BME280;32536;47.128;8.746;2023-04-04T07:55:35;91735.84;;;3.26;53.06
46778;BME280;32536;47.128;8.746;2023-04-04T07:58:02;91731.72;;;3.28;52.96
46778;BME280;32536;47.128;8.746;2023-04-04T08:00:28;91735.84;;;3.26;52.98
46778;BME280;32536;47.128;8.746;2023-04-04T08:02:55;91732.44;;;3.25;53.03
46778;BME280;32536;47.128;8.746;2023-04-04T08:05:26;91723.09;;;3.31;53.15
46778;BME280;32536;47.128;8.746;2023-04-04T08:07:53;91735.16;;;3.29;52.97
46778;BME280;32536;47.128;8.746;2023-04-04T08:10:19;91738.09;;;3.24;53.07
46778;BME280;32536;47.128;8.746;2023-04-04T08:12:46;91736.81;;;3.14;53.64
46778;BME280;32536;47.128;8.746;2023-04-04T08:15:13;91733.88;;;3.19;54.50
46778;BME280;32536;47.128;8.746;2023-04-04T08:17:41;91741.00;;;3.42;55.16
46778;BME280;32536;47.128;8.746;2023-04-04T08:20:11;91735.78;;;3.76;55.03
46778;BME280;32536;47.128;8.746;2023-04-04T08:22:39;91740.75;;;4.08;53.62
46778;BME280;32536;47.128;8.746;2023-04-04T08:25:09;91734.03;;;4.18;52.40
46778;BME280;32536;47.128;8.746;2023-04-04T08:27:38;91734.31;;;4.09;51.71
46778;BME280;32536;47.128;8.746;2023-04-04T08:30:06;91729.97;;;3.93;51.76
46778;BME280;32536;47.128;8.746;2023-04-04T08:32:34;91726.41;;;3.82;52.26
46778;BME280;32536;47.128;8.746;2023-04-04T08:35:01;91730.16;;;3.77;52.30
46778;BME280;32536;47.128;8.746;2023-04-04T08:37:28;91734.31;;;3.78;52.13
46778;BME280;32536;47.128;8.746;2023-04-04T08:39:55;91735.44;;;3.77;52.33
46778;BME280;32536;47.128;8.746;2023-04-04T08:42:23;91733.91;;;3.76;52.11
46778;BME280;32536;47.128;8.746;2023-04-04T08:44:52;91741.03;;;3.72;52.07
46778;BME280;32536;47.128;8.746;2023-04-04T08:47:21;91740.59;;;3.66;52.05
46778;BME280;32536;47.128;8.746;2023-04-04T08:49:50;91738.28;;;3.65;52.35
46778;BME280;32536;47.128;8.746;2023-04-04T08:52:19;91740.94;;;3.65;52.31
46778;BME280;32536;47.128;8.746;2023-04-04T08:54:50;91742.88;;;3.68;52.53
46778;BME280;32536;47.128;8.746;2023-04-04T08:57:17;91742.03;;;3.60;52.23
46778;BME280;32536;47.128;8.746;2023-04-04T08:59:44;91742.38;;;3.59;52.28
46778;BME280;32536;47.128;8.746;2023-04-04T09:04:56;91757.88;;;3.57;52.23
46778;BME280;32536;47.128;8.746;2023-04-04T09:07:24;91741.16;;;3.52;52.39
46778;BME280;32536;47.128;8.746;2023-04-04T09:09:52;91748.72;;;3.50;52.52
46778;BME280;32536;47.128;8.746;2023-04-04T09:12:20;91750.19;;;3.48;52.78
46778;BME280;32536;47.128;8.746;2023-04-04T09:14:49;91742.69;;;3.53;52.82
46778;BME280;32536;47.128;8.746;2023-04-04T09:17:16;91745.03;;;3.59;52.74
46778;BME280;32536;47.128;8.746;2023-04-04T09:19:43;91745.84;;;3.63;52.61
46778;BME280;32536;47.128;8.746;2023-04-04T09:22:10;91742.88;;;3.68;52.85
46778;BME280;32536;47.128;8.746;2023-04-04T09:24:43;91753.59;;;3.75;52.25
46778;BME280;32536;47.128;8.746;2023-04-04T09:27:11;91746.09;;;3.81;52.57
46778;BME280;32536;47.128;8.746;2023-04-04T09:29:38;91751.78;;;3.83;52.46
46778;BME280;32536;47.128;8.746;2023-04-04T09:32:09;91739.97;;;3.77;52.33
46778;BME280;32536;47.128;8.746;2023-04-04T09:34:40;91743.78;;;3.79;52.42
46778;BME280;32536;47.128;8.746;2023-04-04T09:37:13;91754.84;;;3.85;52.39
46778;BME280;32536;47.128;8.746;2023-04-04T09:39:42;91753.88;;;3.97;52.42
46778;BME280;32536;47.128;8.746;2023-04-04T09:42:10;91752.00;;;4.01;52.50
46778;BME280;32536;47.128;8.746;2023-04-04T09:44:37;91754.72;;;4.05;52.28
46778;BME280;32536;47.128;8.746;2023-04-04T09:47:30;91746.06;;;4.08;52.40
46778;BME280;32536;47.128;8.746;2023-04-04T09:49:58;91748.66;;;4.04;52.20
46778;BME280;32536;47.128;8.746;2023-04-04T09:52:25;91753.19;;;4.04;52.33
46778;BME280;32536;47.128;8.746;2023-04-04T09:54:56;91749.41;;;4.05;52.01
46778;BME280;32536;47.128;8.746;2023-04-04T09:57:27;91752.84;;;4.09;52.25
46778;BME280;32536;47.128;8.746;2023-04-04T09:59:56;91754.06;;;4.11;52.26
46778;BME280;32536;47.128;8.746;2023-04-04T10:02:25;91753.00;;;4.20;52.21
46778;BME280;32536;47.128;8.746;2023-04-04T10:04:53;91764.06;;;4.25;52.34
46778;BME280;32536;47.128;8.746;2023-04-04T10:07:24;91756.47;;;4.24;52.08
46778;BME280;32536;47.128;8.746;2023-04-04T10:09:52;91759.47;;;4.22;51.86
46778;BME280;32536;47.128;8.746;2023-04-04T10:12:24;91764.72;;;4.19;52.07
46778;BME280;32536;47.128;8.746;2023-04-04T10:14:58;91758.66;;;4.18;52.11
46778;BME280;32536;47.128;8.746;2023-04-04T10:17:44;91764.75;;;4.22;51.91
46778;BME280;32536;47.128;8.746;2023-04-04T10:20:13;91767.88;;;4.28;52.04
46778;BME280;32536;47.128;8.746;2023-04-04T10:22:41;91765.63;;;4.30;51.97
46778;BME280;32536;47.128;8.746;2023-04-04T10:25:08;91772.75;;;4.26;51.85
46778;BME280;32536;47.128;8.746;2023-04-04T10:27:35;91771.97;;;4.22;51.67
46778;BME280;32536;47.128;8.746;2023-04-04T10:30:03;91771.47;;;4.12;51.61
46778;BME280;32536;47.128;8.746;2023-04-04T10:32:42;91772.94;;;4.10;51.62
46778;BME280;32536;47.128;8.746;2023-04-04T10:35:20;91766.84;;;4.06;51.69
46778;BME280;32536;47.128;8.746;2023-04-04T10:37:58;91774.34;;;4.00;51.68
46778;BME280;32536;47.128;8.746;2023-04-04T10:40:30;91777.34;;;3.98;51.81
46778;BME280;32536;47.128;8.746;2023-04-04T10:43:04;91774.25;;;3.93;50.93
46778;BME280;32536;47.128;8.746;2023-04-04T10:45:32;91773.44;;;3.89;51.52
46778;BME280;32536;47.128;8.746;2023-04-04T10:48:03;91780.38;;;3.97;51.61
46778;BME280;32536;47.128;8.746;2023-04-04T10:50:30;91773.97;;;4.01;51.54
46778;BME280;32536;47.128;8.746;2023-04-04T10:52:59;91774.03;;;4.05;51.62
46778;BME280;32536;47.128;8.746;2023-04-04T10:55:27;91780.16;;;4.09;51.79
46778;BME280;32536;47.128;8.746;2023-04-04T10:58:10;91778.34;;;4.17;51.75
46778;BME280;32536;47.128;8.746;2023-04-04T11:00:51;91775.81;;;4.28;51.43
46778;BME280;32536;47.128;8.746;2023-04-04T11:03:20;91779.31;;;4.36;51.32
46778;BME280;32536;47.128;8.746;2023-04-04T11:05:47;91781.97;;;4.36;51.27
46778;BME280;32536;47.128;8.746;2023-04-04T11:08:17;91773.25;;;4.35;51.22
46778;BME280;32536;47.128;8.746;2023-04-04T11:10:51;91768.75;;;4.39;51.33
46778;BME280;32536;47.128;8.746;2023-04-04T11:13:24;91772.22;;;4.43;51.34
46778;BME280;32536;47.128;8.746;2023-04-04T11:15:57;91776.78;;;4.46;51.24
46778;BME280;32536;47.128;8.746;2023-04-04T11:21:09;91782.59;;;4.56;51.15
46778;BME280;32536;47.128;8.746;2023-04-04T11:26:17;91774.84;;;4.40;50.97
46778;BME280;32536;47.128;8.746;2023-04-04T11:28:50;91779.34;;;4.39;50.79
46778;BME280;32536;47.128;8.746;2023-04-04T11:39:31;91782.25;;;4.61;51.03
46778;BME280;32536;47.128;8.746;2023-04-04T11:42:05;91782.28;;;4.64;50.99
46778;BME280;32536;47.128;8.746;2023-04-04T11:47:25;91782.41;;;4.75;50.62
46778;BME280;32536;47.128;8.746;2023-04-04T11:49:54;91782.00;;;4.73;50.75
46778;BME280;32536;47.128;8.746;2023-04-04T11:52:21;91778.59;;;4.73;50.87
46778;BME280;32536;47.128;8.746;2023-04-04T11:54:51;91782.41;;;4.75;50.62
46778;BME280;32536;47.128;8.746;2023-04-04T11:57:18;91781.25;;;4.73;50.28
46778;BME280;32536;47.128;8.746;2023-04-04T11:59:47;91781.53;;;4.64;49.47
46778;BME280;32536;47.128;8.746;2023-04-04T12:02:19;91778.09;;;4.63;49.92
46778;BME280;32536;47.128;8.746;2023-04-04T12:04:50;91779.34;;;4.73;50.08
46778;BME280;32536;47.128;8.746;2023-04-04T12:07:17;91773.75;;;4.82;50.30
46778;BME280;32536;47.128;8.746;2023-04-04T12:09:44;91771.91;;;4.86;49.53
46778;BME280;32536;47.128;8.746;2023-04-04T12:12:12;91771.91;;;4.86;49.40
46778;BME280;32536;47.128;8.746;2023-04-04T12:14:42;91769.66;;;4.88;49.90
46778;BME280;32536;47.128;8.746;2023-04-04T12:17:09;91776.13;;;4.91;48.97
46778;BME280;32536;47.128;8.746;2023-04-04T12:19:37;91777.63;;;4.92;48.94
46778;BME280;32536;47.128;8.746;2023-04-04T12:22:06;91770.81;;;4.91;48.75
46778;BME280;32536;47.128;8.746;2023-04-04T12:24:33;91775.78;;;4.96;49.22
46778;BME280;32536;47.128;8.746;2023-04-04T12:27:01;91778.16;;;5.08;49.20
46778;BME280;32536;47.128;8.746;2023-04-04T12:29:29;91776.72;;;5.15;48.96
46778;BME280;32536;47.128;8.746;2023-04-04T12:32:04;91769.56;;;5.22;49.24
46778;BME280;32536;47.128;8.746;2023-04-04T12:34:32;91767.75;;;5.34;49.03
46778;BME280;32536;47.128;8.746;2023-04-04T12:37:01;91767.00;;;5.37;48.78
46778;BME280;32536;47.128;8.746;2023-04-04T12:39:29;91769.75;;;5.48;48.72
46778;BME280;32536;47.128;8.746;2023-04-04T12:41:58;91766.72;;;5.49;47.70
46778;BME280;32536;47.128;8.746;2023-04-04T12:44:34;91773.13;;;5.41;46.66
46778;BME280;32536;47.128;8.746;2023-04-04T12:47:08;91776.84;;;5.33;46.88
46778;BME280;32536;47.128;8.746;2023-04-04T12:49:41;91775.72;;;5.34;47.38
46778;BME280;32536;47.128;8.746;2023-04-04T12:52:20;91784.84;;;5.36;47.07
46778;BME280;32536;47.128;8.746;2023-04-04T12:54:49;91777.28;;;5.38;47.11
46778;BME280;32536;47.128;8.746;2023-04-04T12:57:21;91773.84;;;5.38;46.68
46778;BME280;32536;47.128;8.746;2023-04-04T12:59:49;91772.69;;;5.35;46.46
46778;BME280;32536;47.128;8.746;2023-04-04T13:02:20;91772.69;;;5.35;46.12
46778;BME280;32536;47.128;8.746;2023-04-04T13:04:51;91769.31;;;5.38;46.68
46778;BME280;32536;47.128;8.746;2023-04-04T13:07:25;91771.66;;;5.47;47.41
46778;BME280;32536;47.128;8.746;2023-04-04T13:09:56;91774.72;;;5.53;46.98
46778;BME280;32536;47.128;8.746;2023-04-04T13:12:58;91771.69;;;5.51;46.72
46778;BME280;32536;47.128;8.746;2023-04-04T13:18:15;91770.94;;;5.54;45.95
46778;BME280;32536;47.128;8.746;2023-04-04T13:20:46;91771.66;;;5.47;45.33
46778;BME280;32536;47.128;8.746;2023-04-04T13:23:13;91772.81;;;5.50;46.28
46778;BME280;32536;47.128;8.746;2023-04-04T13:25:41;91766.38;;;5.51;46.43
46778;BME280;32536;47.128;8.746;2023-04-04T13:28:08;91769.47;;;5.64;46.84
46778;BME280;32536;47.128;8.746;2023-04-04T13:30:39;91765.38;;;5.77;46.27
46778;BME280;32536;47.128;8.746;2023-04-04T13:33:11;91771.50;;;5.81;47.06
46778;BME280;32536;47.128;8.746;2023-04-04T13:35:37;91767.38;;;5.91;47.09
46778;BME280;32536;47.128;8.746;2023-04-04T13:38:04;91767.09;;;6.00;47.13
46778;BME280;32536;47.128;8.746;2023-04-04T13:40:31;91758.75;;;6.05;47.04